Time;durP1;ratioP1;P1;durP2;ratioP2;P2;SDS_P1;SDS_P2;PMS_P1;PMS_P2;Temp;Humidity;BMP_temperature;BMP_pressure;BME280_temperature;BME280_humidity;BME280_pressure;Samples;Min_cycle;Max_cycle;Signal;HPM_P1;HPM_P2
2022/08/23 00:01:53;;;;;;;1.33;1.23;;;22.90;99.90;;;;;;5098415;28;20024;-63
2022/08/23 00:04:32;;;;;;;1.42;1.33;;;22.80;99.90;;;;;;5098805;28;20016;-62
2022/08/23 00:07:00;;;;;;;1.50;1.40;;;22.90;99.90;;;;;;5098844;28;20038;-63
2022/08/23 00:09:27;;;;;;;1.60;1.50;;;22.90;99.90;;;;;;5098669;28;20026;-63
2022/08/23 00:12:14;;;;;;;1.50;1.40;;;23.00;99.90;;;;;;5098699;28;20028;-62
2022/08/23 00:14:43;;;;;;;1.65;1.40;;;22.80;99.90;;;;;;5098896;28;20020;-62
2022/08/23 00:17:10;;;;;;;1.80;1.70;;;22.90;99.90;;;;;;5098565;28;20074;-63
2022/08/23 00:19:36;;;;;;;1.85;1.75;;;23.00;99.90;;;;;;5098610;28;20027;-63
2022/08/23 00:22:03;;;;;;;1.90;1.60;;;23.00;99.90;;;;;;5098742;28;20534;-63
2022/08/23 00:24:29;;;;;;;1.77;1.67;;;22.90;99.90;;;;;;5098768;28;20134;-63
2022/08/23 00:26:58;;;;;;;1.98;1.85;;;22.90;99.90;;;;;;5098475;28;20520;-63
2022/08/23 00:29:42;;;;;;;2.10;1.90;;;23.00;99.90;;;;;;5098493;28;20062;-63
2022/08/23 00:32:09;;;;;;;;;;;22.90;99.90;;;;;;5099142;28;20392;-63
2022/08/23 00:34:36;;;;;;;2.47;1.95;;;23.00;99.90;;;;;;5098502;28;19904;-63
2022/08/23 00:37:03;;;;;;;2.22;1.80;;;22.70;99.90;;;;;;5098559;28;20028;-63
2022/08/23 00:39:29;;;;;;;2.63;2.05;;;23.00;99.90;;;;;;5098731;28;20477;-63
2022/08/23 00:47:38;;;;;;;1.92;1.80;;;22.80;99.90;;;;;;5098555;28;20020;-63
2022/08/23 00:47:38;;;;;;;1.80;1.70;;;22.90;99.90;;;;;;5098423;28;20459;-63
2022/08/23 00:50:25;;;;;;;2.05;1.90;;;22.90;99.90;;;;;;5098280;28;20047;-63
2022/08/23 00:53:11;;;;;;;1.92;1.80;;;23.10;99.90;;;;;;5098321;28;20456;-62
2022/08/23 00:55:39;;;;;;;2.88;1.85;;;22.90;99.90;;;;;;5097957;28;20032;-63
2022/08/23 00:58:07;;;;;;;1.95;1.85;;;22.80;99.90;;;;;;5098238;28;20020;-62
2022/08/23 01:00:34;;;;;;;2.00;1.80;;;22.70;99.90;;;;;;5097909;28;20581;-63
2022/08/23 01:03:02;;;;;;;1.95;1.80;;;23.00;99.90;;;;;;5097643;28;20392;-63
2022/08/23 01:05:40;;;;;;;1.98;1.88;;;22.90;99.90;;;;;;5095043;28;20056;-63
2022/08/23 01:08:06;;;;;;;2.03;1.85;;;22.90;99.90;;;;;;5095023;28;20027;-62
2022/08/23 01:10:42;;;;;;;1.95;1.80;;;22.90;99.90;;;;;;5094856;28;20044;-63
2022/08/23 01:13:16;;;;;;;2.40;1.80;;;22.70;99.90;;;;;;5094828;28;20032;-63
2022/08/23 01:15:49;;;;;;;1.80;1.70;;;22.70;99.90;;;;;;5094973;28;20552;-63
2022/08/23 01:18:18;;;;;;;1.95;1.63;;;23.00;99.90;;;;;;5094946;28;20073;-63
2022/08/23 01:20:47;;;;;;;1.70;1.60;;;22.60;99.90;;;;;;5094744;28;20024;-62
2022/08/23 01:23:35;;;;;;;2.55;1.83;;;22.90;99.90;;;;;;5094805;28;20369;-63
2022/08/23 01:26:02;;;;;;;1.70;1.60;;;22.60;99.90;;;;;;5091641;28;20036;-63
2022/08/23 01:28:28;;;;;;;2.08;1.90;;;22.80;99.90;;;;;;5094881;28;20031;-63
2022/08/23 01:30:54;;;;;;;1.90;1.80;;;22.70;99.90;;;;;;5094472;28;20036;-63
2022/08/23 01:33:20;;;;;;;1.95;1.77;;;22.80;99.90;;;;;;5094630;28;20496;-63
2022/08/23 01:35:49;;;;;;;1.88;1.73;;;22.70;99.90;;;;;;5094508;28;20047;-63
2022/08/23 01:38:15;;;;;;;1.92;1.83;;;22.80;99.90;;;;;;5094418;28;20020;-63
2022/08/23 01:40:41;;;;;;;2.30;2.10;;;22.60;99.90;;;;;;5094495;28;20093;-62
2022/08/23 01:43:08;;;;;;;2.08;1.77;;;22.60;99.90;;;;;;5094294;28;20091;-63
2022/08/23 01:45:35;;;;;;;2.10;1.90;;;22.70;99.90;;;;;;5094056;28;20086;-63
2022/08/23 01:48:01;;;;;;;2.03;1.92;;;22.80;99.90;;;;;;5094375;28;20103;-63
2022/08/23 01:50:28;;;;;;;2.45;1.83;;;22.90;99.90;;;;;;5094076;28;20040;-62
2022/08/23 01:52:54;;;;;;;2.28;2.00;;;22.70;99.90;;;;;;5094511;28;20028;-63
2022/08/23 01:55:20;;;;;;;2.30;2.10;;;22.70;99.90;;;;;;5094212;28;20024;-63
2022/08/23 01:57:51;;;;;;;1.73;1.63;;;22.70;99.90;;;;;;5093713;28;20029;-63
2022/08/23 02:00:19;;;;;;;3.17;2.00;;;22.70;99.90;;;;;;5094258;28;20058;-63
2022/08/23 02:02:45;;;;;;;2.40;2.20;;;22.70;99.90;;;;;;5094254;28;20094;-63
2022/08/23 02:05:12;;;;;;;2.10;1.92;;;22.70;99.90;;;;;;5094003;28;20051;-63
2022/08/23 02:07:37;;;;;;;3.83;2.20;;;22.70;99.90;;;;;;5094170;28;20039;-63
2022/08/23 02:10:05;;;;;;;2.35;2.15;;;22.50;99.90;;;;;;5093911;28;20020;-63
2022/08/23 02:12:32;;;;;;;2.30;2.10;;;22.50;99.90;;;;;;5093536;28;20077;-63
2022/08/23 02:14:57;;;;;;;2.50;2.30;;;22.60;99.90;;;;;;5092812;28;20020;-62
2022/08/23 02:17:23;;;;;;;2.35;2.15;;;22.60;99.90;;;;;;5093566;28;20400;-62
2022/08/23 02:19:49;;;;;;;2.88;2.28;;;22.50;99.90;;;;;;5093664;28;20024;-62
2022/08/23 02:22:15;;;;;;;2.33;2.13;;;22.50;99.90;;;;;;5094039;28;20020;-62
2022/08/23 02:24:43;;;;;;;2.40;2.20;;;22.60;99.90;;;;;;5093763;28;20048;-62
2022/08/23 02:27:10;;;;;;;2.33;2.15;;;22.60;99.90;;;;;;5093202;28;20020;-62
2022/08/23 02:29:37;;;;;;;2.80;2.20;;;22.50;99.90;;;;;;5093389;28;20442;-63
2022/08/23 02:32:03;;;;;;;3.50;2.17;;;22.40;99.90;;;;;;5093532;28;20024;-62
2022/08/23 02:34:30;;;;;;;2.65;2.08;;;22.60;99.90;;;;;;5093289;28;20024;-63
2022/08/23 02:36:56;;;;;;;1.98;1.77;;;22.40;99.90;;;;;;5093331;28;20469;-63
2022/08/23 02:39:22;;;;;;;2.00;1.90;;;22.40;99.90;;;;;;5109184;28;20421;-63
2022/08/23 02:41:49;;;;;;;2.40;2.20;;;22.50;99.90;;;;;;5092786;28;20446;-63
2022/08/23 02:44:14;;;;;;;2.00;1.88;;;22.70;99.90;;;;;;5093048;28;20058;-65
2022/08/23 02:46:41;;;;;;;1.90;1.80;;;22.60;99.90;;;;;;5093709;28;20480;-63
2022/08/23 02:49:07;;;;;;;2.67;2.00;;;22.60;99.90;;;;;;5093181;28;20039;-63
2022/08/23 02:51:34;;;;;;;3.10;1.88;;;22.50;99.90;;;;;;5093053;28;20035;-63
2022/08/23 02:54:00;;;;;;;1.90;1.80;;;22.70;99.90;;;;;;5093020;28;20018;-63
2022/08/23 02:56:25;;;;;;;2.60;1.90;;;22.60;99.90;;;;;;5093010;28;20032;-62
2022/08/23 02:58:51;;;;;;;2.60;2.10;;;22.40;99.90;;;;;;5093013;28;20097;-62
2022/08/23 03:01:27;;;;;;;2.38;1.83;;;22.40;99.90;;;;;;5092976;28;20051;-63
2022/08/23 03:03:53;;;;;;;2.10;1.90;;;22.70;99.90;;;;;;5092937;28;20032;-63
2022/08/23 03:06:19;;;;;;;1.83;1.73;;;22.60;99.90;;;;;;5093220;28;20043;-63
2022/08/23 03:08:45;;;;;;;1.70;1.60;;;22.50;99.90;;;;;;5092328;28;20032;-62
2022/08/23 03:11:13;;;;;;;2.05;1.70;;;22.60;99.90;;;;;;5092652;28;20036;-62
2022/08/23 03:13:41;;;;;;;3.15;1.80;;;22.50;99.90;;;;;;5092629;28;20126;-62
2022/08/23 03:16:09;;;;;;;2.58;1.88;;;22.60;99.90;;;;;;5092737;28;20114;-63
2022/08/23 03:18:35;;;;;;;2.08;1.90;;;22.60;99.90;;;;;;5092665;28;20052;-63
2022/08/23 03:21:04;;;;;;;1.80;1.70;;;22.70;99.90;;;;;;5092593;28;20511;-63
2022/08/23 03:23:31;;;;;;;2.38;1.70;;;22.50;99.90;;;;;;5092360;28;20020;-63
2022/08/23 03:25:58;;;;;;;2.13;1.90;;;22.60;99.90;;;;;;5092649;28;20031;-62
2022/08/23 03:28:25;;;;;;;2.08;1.80;;;22.60;99.90;;;;;;5092344;28;20031;-63
2022/08/23 03:30:51;;;;;;;1.80;1.70;;;22.40;99.90;;;;;;5092173;28;20120;-63
2022/08/23 03:33:17;;;;;;;2.60;1.77;;;22.50;99.90;;;;;;5092823;28;20095;-63
2022/08/23 03:35:43;;;;;;;1.75;1.65;;;22.40;99.90;;;;;;5092525;28;20105;-63
2022/08/23 03:38:09;;;;;;;1.75;1.65;;;22.40;99.90;;;;;;5091967;28;20024;-62
2022/08/23 03:40:35;;;;;;;2.33;1.83;;;22.50;99.90;;;;;;5092149;28;20385;-63
2022/08/23 03:43:01;;;;;;;2.00;1.58;;;22.40;99.90;;;;;;5092314;28;20036;-63
2022/08/23 03:45:27;;;;;;;1.85;1.75;;;22.60;99.90;;;;;;5092509;28;20044;-63
2022/08/23 03:47:53;;;;;;;1.73;1.63;;;22.40;99.90;;;;;;5092329;28;20048;-63
2022/08/23 03:50:20;;;;;;;2.03;1.60;;;22.30;99.90;;;;;;5092073;28;20067;-63
2022/08/23 03:52:46;;;;;;;2.20;1.98;;;22.40;99.90;;;;;;5091908;28;20020;-63
2022/08/23 03:55:13;;;;;;;2.03;1.83;;;22.20;99.90;;;;;;5092233;28;20106;-63
2022/08/23 03:57:39;;;;;;;1.80;1.70;;;22.30;99.90;;;;;;5092434;28;20032;-63
2022/08/23 04:00:07;;;;;;;1.75;1.60;;;22.20;99.90;;;;;;5092145;28;20043;-63
2022/08/23 04:02:33;;;;;;;1.70;1.60;;;22.20;99.90;;;;;;5092100;28;20024;-63
2022/08/23 04:04:59;;;;;;;1.80;1.60;;;22.60;99.90;;;;;;5092444;28;20065;-63
2022/08/23 04:07:25;;;;;;;2.15;1.67;;;22.40;99.90;;;;;;5091478;28;20509;-64
2022/08/23 04:09:51;;;;;;;1.95;1.40;;;22.30;99.90;;;;;;5092256;28;20032;-63
2022/08/23 04:12:17;;;;;;;2.40;1.63;;;22.30;99.90;;;;;;5092039;28;20027;-63
2022/08/23 04:14:44;;;;;;;1.80;1.70;;;22.20;99.90;;;;;;5092105;28;20032;-63
2022/08/23 04:17:10;;;;;;;1.70;1.60;;;22.30;99.90;;;;;;5092363;28;20117;-62
2022/08/23 04:19:36;;;;;;;1.55;1.45;;;22.20;99.90;;;;;;5091810;28;20020;-62
2022/08/23 04:22:02;;;;;;;1.70;1.60;;;22.30;99.90;;;;;;5091546;28;20044;-63
2022/08/23 04:24:28;;;;;;;2.35;1.60;;;22.40;99.90;;;;;;5091992;28;20106;-63
2022/08/23 04:26:54;;;;;;;2.60;1.65;;;22.30;99.90;;;;;;5091910;28;20092;-63
2022/08/23 04:29:21;;;;;;;1.50;1.40;;;22.20;99.90;;;;;;5092115;28;20079;-63
2022/08/23 04:31:47;;;;;;;1.70;1.60;;;22.20;99.90;;;;;;5091812;28;20032;-63
2022/08/23 04:34:13;;;;;;;1.50;1.40;;;22.20;99.90;;;;;;5091769;28;20021;-63
2022/08/23 04:36:41;;;;;;;1.77;1.50;;;22.30;99.90;;;;;;5091427;28;20051;-63
2022/08/23 04:39:08;;;;;;;2.15;1.45;;;22.20;99.90;;;;;;5093086;28;20083;-63
2022/08/23 04:44:20;;;;;;;2.50;1.70;;;22.20;99.90;;;;;;5095596;28;20054;-62
2022/08/23 04:46:47;;;;;;;3.20;1.40;;;22.20;99.90;;;;;;5095580;28;20071;-62
2022/08/23 04:49:14;;;;;;;1.92;1.63;;;22.30;99.90;;;;;;5095592;28;20039;-63
2022/08/23 04:51:40;;;;;;;1.60;1.50;;;22.20;99.90;;;;;;5095358;28;20498;-63
2022/08/23 04:54:06;;;;;;;1.65;1.55;;;22.20;99.90;;;;;;5095394;28;20099;-63
2022/08/23 04:56:33;;;;;;;1.80;1.70;;;22.20;99.90;;;;;;5095382;28;20450;-62
2022/08/23 04:58:58;;;;;;;1.60;1.50;;;22.10;99.90;;;;;;5095612;28;20413;-62
2022/08/23 05:01:24;;;;;;;3.28;1.77;;;22.20;99.90;;;;;;5095263;28;20103;-64
2022/08/23 05:03:51;;;;;;;1.88;1.77;;;22.30;99.90;;;;;;5095269;28;20396;-63
2022/08/23 05:06:16;;;;;;;1.50;1.40;;;22.10;99.90;;;;;;5110411;28;20063;-63
2022/08/23 05:08:42;;;;;;;1.80;1.70;;;22.10;99.90;;;;;;5095224;28;20481;-63
2022/08/23 05:11:10;;;;;;;1.92;1.75;;;22.10;99.90;;;;;;5094798;28;20032;-63
2022/08/23 05:13:36;;;;;;;2.05;1.67;;;22.20;99.90;;;;;;5094898;28;20073;-63
2022/08/23 05:16:03;;;;;;;1.80;1.70;;;22.10;99.90;;;;;;5094833;28;20481;-63
2022/08/23 05:18:29;;;;;;;1.70;1.60;;;22.20;99.90;;;;;;5094686;28;20017;-64
2022/08/23 05:20:55;;;;;;;1.80;1.60;;;22.00;99.90;;;;;;5093773;28;20102;-63
2022/08/23 05:23:21;;;;;;;1.80;1.70;;;22.00;99.90;;;;;;5095062;28;20085;-63
2022/08/23 05:25:49;;;;;;;2.05;1.65;;;22.10;99.90;;;;;;5094769;28;20403;-63
2022/08/23 05:28:24;;;;;;;3.60;1.83;;;22.20;99.90;;;;;;5094561;28;20050;-64
2022/08/23 05:31:03;;;;;;;1.92;1.60;;;22.00;99.90;;;;;;5094612;28;20032;-64
2022/08/23 05:33:30;;;;;;;1.70;1.50;;;22.10;99.90;;;;;;5094488;28;20028;-63
2022/08/23 05:35:56;;;;;;;1.73;1.55;;;22.20;99.90;;;;;;5110055;28;20024;-62
2022/08/23 05:38:25;;;;;;;1.50;1.40;;;21.90;99.90;;;;;;5094770;28;20031;-63
2022/08/23 05:40:52;;;;;;;3.72;1.63;;;22.10;99.90;;;;;;5094449;28;20105;-63
2022/08/23 05:43:19;;;;;;;2.40;1.70;;;21.90;99.90;;;;;;5094517;28;20028;-63
2022/08/23 05:45:45;;;;;;;1.73;1.50;;;22.20;99.90;;;;;;5094110;28;20051;-63
2022/08/23 05:48:12;;;;;;;2.80;1.60;;;22.10;99.90;;;;;;5094615;28;20034;-63
2022/08/23 05:50:38;;;;;;;1.50;1.40;;;22.20;99.90;;;;;;5093426;28;20077;-63
2022/08/23 05:53:05;;;;;;;1.95;1.40;;;22.10;99.90;;;;;;5094237;28;20021;-64
2022/08/23 05:55:31;;;;;;;3.47;1.48;;;22.10;99.90;;;;;;5094214;28;20497;-63
2022/08/23 05:57:56;;;;;;;2.33;1.48;;;22.20;99.90;;;;;;5094079;28;20028;-64
2022/08/23 06:00:22;;;;;;;3.13;2.22;;;22.10;99.90;;;;;;5093951;28;20028;-63
2022/08/23 06:02:48;;;;;;;2.47;1.55;;;22.10;99.90;;;;;;5093652;28;20031;-63
2022/08/23 06:05:15;;;;;;;2.10;1.70;;;22.30;99.90;;;;;;5094453;28;20055;-63
2022/08/23 06:07:40;;;;;;;2.90;2.15;;;22.10;99.90;;;;;;5094189;28;20031;-63
2022/08/23 06:10:07;;;;;;;1.98;1.67;;;22.00;99.90;;;;;;5093731;28;20036;-63
2022/08/23 06:12:33;;;;;;;4.30;1.75;;;22.20;99.90;;;;;;5093897;28;20035;-63
2022/08/23 06:14:59;;;;;;;2.25;1.50;;;22.40;99.90;;;;;;5093758;28;20024;-63
2022/08/23 06:17:25;;;;;;;1.60;1.50;;;22.60;99.90;;;;;;5094262;28;20028;-63
2022/08/23 06:19:51;;;;;;;2.95;1.70;;;22.40;99.90;;;;;;5093681;28;20089;-63
2022/08/23 06:22:17;;;;;;;1.95;1.60;;;22.40;99.90;;;;;;5093589;28;20028;-63
2022/08/23 06:24:43;;;;;;;3.55;1.63;;;22.50;99.90;;;;;;5093672;28;20024;-63
2022/08/23 06:27:10;;;;;;;2.00;1.80;;;22.80;99.90;;;;;;5093520;28;20024;-63
2022/08/23 06:29:37;;;;;;;1.80;1.70;;;22.80;99.90;;;;;;5093321;28;20020;-62
2022/08/23 06:32:04;;;;;;;3.65;1.90;;;22.70;99.90;;;;;;5093230;28;20089;-63
2022/08/23 06:34:33;;;;;;;3.85;3.45;;;22.80;99.90;;;;;;5093444;28;20066;-63
2022/08/23 06:37:06;;;;;;;2.10;1.90;;;22.70;99.90;;;;;;5093342;28;20043;-63
2022/08/23 06:39:32;;;;;;;4.03;2.47;;;23.10;99.90;;;;;;5093089;28;20503;-63
2022/08/23 06:42:07;;;;;;;4.32;3.17;;;22.80;99.90;;;;;;5093774;28;20016;-63
2022/08/23 06:44:34;;;;;;;3.05;2.53;;;22.90;99.90;;;;;;5093105;28;20044;-63
2022/08/23 06:47:01;;;;;;;2.42;2.22;;;22.80;99.90;;;;;;5092827;28;20032;-63
2022/08/23 06:49:27;;;;;;;2.50;2.30;;;23.10;99.90;;;;;;5093025;28;20362;-63
2022/08/23 06:51:55;;;;;;;5.65;5.00;;;22.80;99.90;;;;;;5093128;28;20024;-63
2022/08/23 06:54:23;;;;;;;2.90;2.60;;;23.10;99.90;;;;;;5093485;28;20024;-62
2022/08/23 06:56:49;;;;;;;2.40;2.20;;;23.20;99.90;;;;;;5093011;28;20028;-62
2022/08/23 06:59:15;;;;;;;3.00;2.70;;;23.10;99.90;;;;;;5092956;28;20430;-63
2022/08/23 07:01:46;;;;;;;5.20;2.97;;;22.90;99.90;;;;;;5091810;28;20060;-63
2022/08/23 07:04:13;;;;;;;4.60;3.22;;;23.20;99.90;;;;;;5092946;28;20078;-63
2022/08/23 07:06:39;;;;;;;3.10;2.80;;;23.20;99.90;;;;;;5092883;28;20024;-63
2022/08/23 07:09:06;;;;;;;3.20;2.70;;;23.00;99.90;;;;;;5093004;28;20400;-62
2022/08/23 07:11:32;;;;;;;2.88;2.60;;;23.10;99.90;;;;;;5092538;28;20035;-63
2022/08/23 07:14:04;;;;;;;4.65;3.13;;;23.20;99.90;;;;;;5092769;28;20024;-63
2022/08/23 07:16:55;;;;;;;4.10;3.70;;;23.00;99.90;;;;;;5092160;28;20587;-63
2022/08/23 07:19:26;;;;;;;3.70;2.83;;;23.20;99.90;;;;;;5089713;28;20524;-62
2022/08/23 07:21:52;;;;;;;4.28;3.17;;;23.00;99.90;;;;;;5092421;28;20119;-63
2022/08/23 07:24:18;;;;;;;3.60;3.20;;;23.40;99.90;;;;;;5093087;28;20022;-63
2022/08/23 07:26:46;;;;;;;3.63;3.22;;;23.30;99.90;;;;;;5092484;28;20024;-62
2022/08/23 07:29:13;;;;;;;3.70;3.40;;;23.30;99.90;;;;;;5092325;28;20024;-63
2022/08/23 07:31:43;;;;;;;4.07;3.67;;;23.10;99.90;;;;;;5091652;28;20038;-63
2022/08/23 07:34:09;;;;;;;5.05;3.40;;;23.30;99.90;;;;;;5091980;28;20526;-63
2022/08/23 07:36:35;;;;;;;4.22;3.33;;;23.60;99.90;;;;;;5092639;28;20032;-63
2022/08/23 07:39:01;;;;;;;5.40;3.58;;;23.70;99.90;;;;;;5092374;28;20560;-63
2022/08/23 07:41:30;;;;;;;3.60;3.30;;;23.50;99.90;;;;;;5092396;28;20103;-63
2022/08/23 07:43:58;;;;;;;3.65;3.35;;;23.20;99.90;;;;;;5092611;28;20040;-63
2022/08/23 07:46:24;;;;;;;4.50;3.80;;;23.40;99.90;;;;;;5092213;28;20020;-63
2022/08/23 07:48:51;;;;;;;4.05;3.58;;;23.30;99.90;;;;;;5107743;28;20028;-63
2022/08/23 07:51:17;;;;;;;5.03;3.60;;;23.50;99.90;;;;;;5092316;28;20029;-63
2022/08/23 07:53:44;;;;;;;4.82;4.20;;;23.40;99.90;;;;;;5093367;28;20028;-63
2022/08/23 07:56:12;;;;;;;5.05;3.80;;;23.60;99.90;;;;;;5092124;28;20047;-63
2022/08/23 07:58:38;;;;;;;3.92;3.47;;;23.70;99.90;;;;;;5091972;28;20028;-63
2022/08/23 08:01:25;;;;;;;4.30;3.80;;;23.50;99.90;;;;;;5091446;28;20476;-62
2022/08/23 08:03:53;;;;;;;3.60;3.30;;;23.30;99.90;;;;;;5092095;28;20024;-63
2022/08/23 08:06:25;;;;;;;4.03;3.63;;;23.70;99.90;;;;;;5092377;28;20024;-62
2022/08/23 08:08:52;;;;;;;5.90;3.67;;;23.50;99.90;;;;;;5091871;28;20032;-62
2022/08/23 08:11:24;;;;;;;4.00;3.60;;;23.90;99.90;;;;;;5092165;28;20040;-63
2022/08/23 08:13:51;;;;;;;5.03;3.70;;;23.50;99.90;;;;;;5094795;28;20020;-63
2022/08/23 08:16:41;;;;;;;5.03;3.60;;;23.80;99.90;;;;;;5096004;28;20056;-63
2022/08/23 08:19:13;;;;;;;6.80;3.38;;;23.90;99.90;;;;;;5093385;28;20047;-63
2022/08/23 08:21:40;;;;;;;5.50;3.55;;;24.50;99.90;;;;;;5095825;28;20049;-64
2022/08/23 08:24:08;;;;;;;7.97;3.75;;;24.70;99.90;;;;;;5095971;28;20024;-63
2022/08/23 08:26:34;;;;;;;7.07;3.50;;;24.60;99.90;;;;;;5095954;28;20377;-62
2022/08/23 08:29:00;;;;;;;6.25;3.58;;;24.80;99.90;;;;;;5095448;28;20032;-64
2022/08/23 08:31:26;;;;;;;4.30;3.22;;;24.50;99.90;;;;;;5095730;28;20115;-64
2022/08/23 08:33:52;;;;;;;6.43;3.35;;;24.70;99.90;;;;;;5095782;28;20059;-63
2022/08/23 08:36:42;;;;;;;3.95;3.53;;;24.50;99.90;;;;;;5095715;28;20032;-63
2022/08/23 08:39:14;;;;;;;4.38;3.42;;;24.40;99.90;;;;;;5095340;28;20663;-63
2022/08/23 08:41:43;;;;;;;3.92;3.17;;;24.40;99.90;;;;;;5095597;28;20016;-63
2022/08/23 08:44:46;;;;;;;3.75;3.45;;;24.70;99.90;;;;;;5094937;28;20048;-62
2022/08/23 08:47:48;;;;;;;3.60;3.22;;;25.10;99.90;;;;;;5095782;28;20039;-62
2022/08/23 08:50:26;;;;;;;3.60;3.30;;;25.60;99.90;;;;;;5095343;28;20028;-62
2022/08/23 08:53:13;;;;;;;4.03;3.63;;;26.00;99.90;;;;;;5095186;28;20035;-62
2022/08/23 08:55:48;;;;;;;3.50;3.20;;;25.80;99.90;;;;;;5095375;28;20024;-62
2022/08/23 08:58:49;;;;;;;3.63;2.80;;;25.80;99.90;;;;;;5110326;28;20487;-62
2022/08/23 09:01:17;;;;;;;3.28;2.90;;;25.80;99.90;;;;;;5095195;28;20028;-62
2022/08/23 09:03:43;;;;;;;1.48;1.38;;;26.20;99.90;;;;;;5095253;28;20024;-62
2022/08/23 09:06:14;;;;;;;1.80;1.63;;;26.10;99.90;;;;;;5095178;28;20373;-62
2022/08/23 09:08:57;;;;;;;2.65;1.67;;;26.00;99.90;;;;;;5095010;28;20031;-63
2022/08/23 09:11:36;;;;;;;2.75;1.50;;;25.80;99.90;;;;;;5094814;28;20043;-62
2022/08/23 09:14:29;;;;;;;3.08;1.85;;;26.10;99.90;;;;;;5094941;28;20031;-62
2022/08/23 09:17:20;;;;;;;2.65;2.45;;;25.70;99.90;;;;;;5094687;28;20050;-62
2022/08/23 09:19:49;;;;;;;2.90;2.60;;;;;;;;;;5072099;28;20047;-60
2022/08/23 09:22:26;;;;;;;3.13;2.83;;;;;;;;;;5072393;28;20029;-61
2022/08/23 09:24:53;;;;;;;2.58;2.38;;;;;;;;;;5071737;28;20050;-61
2022/08/23 09:27:20;;;;;;;2.47;2.28;;;;;;;;;;5071815;28;20025;-61
2022/08/23 09:29:56;;;;;;;3.20;2.67;;;;;;;;;;5071838;28;20032;-61
2022/08/23 09:32:26;;;;;;;2.47;2.28;;;;;;;;;;5072103;28;20543;-61
2022/08/23 09:35:05;;;;;;;2.30;2.10;;;;;;;;;;5072232;28;20027;-61
2022/08/23 09:37:45;;;;;;;1.95;1.85;;;;;;;;;;5071980;28;20037;-61
2022/08/23 09:40:18;;;;;;;2.22;1.98;;;;;;;;;;5071587;28;20416;-61
2022/08/23 09:42:46;;;;;;;1.70;1.60;;;;;;;;;;5071849;28;20032;-59
2022/08/23 09:45:32;;;;;;;1.98;1.58;;;;;;;;;;5071690;28;20145;-61
2022/08/23 09:47:59;;;;;;;1.60;1.50;;;;;;;;;;5071727;28;20456;-63
2022/08/23 09:50:29;;;;;;;2.03;1.60;;;26.10;99.90;;;;;;5071554;28;20037;-62
2022/08/23 09:53:05;;;;;;;1.77;1.60;;;26.00;99.90;;;;;;5071582;28;20082;-62
2022/08/23 09:55:35;;;;;;;1.73;1.63;;;26.00;99.90;;;;;;5071213;28;20032;-62
2022/08/23 09:58:05;;;;;;;2.15;1.52;;;26.20;99.90;;;;;;5073968;28;20417;-62
2022/08/23 10:00:34;;;;;;;1.90;1.75;;;26.20;99.90;;;;;;5074047;28;20549;-62
2022/08/23 10:03:28;;;;;;;2.58;1.27;;;26.30;99.90;;;;;;5073781;28;20099;-63
2022/08/23 10:05:57;;;;;;;1.30;1.20;;;26.00;99.90;;;;;;5073670;28;20111;-62
2022/08/23 10:08:32;;;;;;;1.48;1.38;;;25.90;99.90;;;;;;5089247;28;20024;-63
2022/08/23 10:11:16;;;;;;;1.35;1.25;;;26.30;99.90;;;;;;5073359;28;20036;-62
2022/08/23 10:13:42;;;;;;;1.20;1.10;;;26.20;99.90;;;;;;5073423;28;20024;-63
2022/08/23 10:16:11;;;;;;;1.00;0.90;;;26.00;99.90;;;;;;5073509;28;20035;-63
2022/08/23 10:18:45;;;;;;;0.80;0.80;;;26.10;99.90;;;;;;5073414;28;20013;-62
2022/08/23 10:21:13;;;;;;;1.02;0.80;;;26.00;99.90;;;;;;5073313;28;20033;-63
2022/08/23 10:24:01;;;;;;;0.60;0.60;;;25.90;99.90;;;;;;5073140;28;20020;-62
2022/08/23 10:26:31;;;;;;;0.70;0.70;;;25.60;99.90;;;;;;5073249;28;20032;-62
2022/08/23 10:32:21;;;;;;;0.63;0.63;;;25.60;99.90;;;;;;5073411;28;20045;-62
2022/08/23 10:35:09;;;;;;;0.70;0.70;;;25.90;99.90;;;;;;5071016;28;20040;-62
2022/08/23 10:38:06;;;;;;;0.63;0.57;;;26.00;99.90;;;;;;5072076;28;20507;-61
2022/08/23 10:40:44;;;;;;;0.60;0.60;;;25.80;99.90;;;;;;5092064;28;20036;-62
2022/08/23 10:43:25;;;;;;;1.00;0.90;;;25.90;99.90;;;;;;5093375;28;20052;-62
2022/08/23 10:45:52;;;;;;;0.82;0.82;;;25.70;99.90;;;;;;5093103;28;20440;-62
2022/08/23 10:48:28;;;;;;;0.80;0.80;;;26.20;99.90;;;;;;5093513;28;20388;-62
2022/08/23 10:51:02;;;;;;;1.48;0.75;;;26.40;99.90;;;;;;5093024;28;20042;-62
2022/08/23 10:53:46;;;;;;;0.80;0.80;;;26.50;99.90;;;;;;5092684;28;20066;-62
2022/08/23 10:56:19;;;;;;;1.20;0.95;;;26.70;99.90;;;;;;5093367;28;20028;-62
2022/08/23 10:58:53;;;;;;;2.10;1.10;;;26.90;99.90;;;;;;5093149;28;20436;-63
2022/08/23 11:01:24;;;;;;;0.82;0.80;;;27.00;99.90;;;;;;5093013;28;20036;-62
2022/08/23 11:04:01;;;;;;;0.75;0.70;;;27.10;99.90;;;;;;5092886;28;20024;-62
2022/08/23 11:06:35;;;;;;;0.77;0.77;;;27.20;99.90;;;;;;5092814;28;20036;-62
2022/08/23 11:09:06;;;;;;;1.17;0.60;;;27.10;99.90;;;;;;5092331;28;20024;-62
2022/08/23 11:11:48;;;;;;;0.90;0.80;;;27.30;99.90;;;;;;5092728;28;20047;-62
2022/08/23 11:14:44;;;;;;;0.80;0.80;;;26.90;99.90;;;;;;5092635;28;20387;-62
2022/08/23 11:17:24;;;;;;;1.67;0.65;;;27.10;99.90;;;;;;5092571;28;20028;-63
2022/08/23 11:19:55;;;;;;;1.00;1.00;;;27.20;99.90;;;;;;5092981;28;20020;-62
2022/08/23 11:22:32;;;;;;;1.20;0.93;;;27.30;99.90;;;;;;5092208;28;20081;-62
2022/08/23 11:25:25;;;;;;;0.95;0.82;;;27.00;99.90;;;;;;5092198;28;20025;-63
2022/08/23 11:28:26;;;;;;;0.70;0.70;;;26.80;99.90;;;;;;5092450;28;20028;-63
2022/08/23 11:31:09;;;;;;;1.27;0.95;;;26.60;99.90;;;;;;5092235;28;20032;-63
2022/08/23 11:33:41;;;;;;;;;;;26.60;99.90;;;;;;5092686;28;20480;-63
2022/08/23 11:36:20;;;;;;;1.67;0.80;;;27.20;99.90;;;;;;5092265;28;19904;-63
2022/08/23 11:38:46;;;;;;;0.98;0.90;;;27.00;99.90;;;;;;5092280;28;20031;-62
2022/08/23 11:41:17;;;;;;;0.80;0.80;;;26.80;99.90;;;;;;5092313;28;20028;-63
2022/08/23 11:44:06;;;;;;;0.90;0.90;;;27.10;99.90;;;;;;5091994;28;20025;-63
2022/08/23 11:46:52;;;;;;;0.80;0.80;;;27.40;99.90;;;;;;5088885;28;20040;-63
2022/08/23 11:49:28;;;;;;;1.17;1.00;;;27.00;99.90;;;;;;5092097;28;20024;-62
2022/08/23 11:51:57;;;;;;;0.77;0.77;;;27.10;99.90;;;;;;5091634;28;20036;-62
2022/08/23 11:54:42;;;;;;;1.10;1.00;;;27.50;99.90;;;;;;5092110;28;20048;-63
2022/08/23 11:57:46;;;;;;;1.90;0.95;;;27.70;99.90;;;;;;5091572;28;20044;-63
2022/08/23 12:00:26;;;;;;;0.80;0.80;;;27.70;99.90;;;;;;5091734;28;20120;-63
2022/08/23 12:03:04;;;;;;;1.00;0.90;;;27.60;99.90;;;;;;5092046;28;20032;-63
2022/08/23 12:05:32;;;;;;;1.80;1.13;;;27.00;99.90;;;;;;5092070;28;20185;-63
2022/08/23 12:08:01;;;;;;;0.90;0.80;;;27.20;99.90;;;;;;5091944;28;20020;-63
2022/08/23 12:10:41;;;;;;;0.93;0.90;;;27.10;99.90;;;;;;5091841;28;20042;-63
2022/08/23 12:13:19;;;;;;;1.05;0.93;;;26.70;99.90;;;;;;5091896;28;20035;-63
2022/08/23 12:16:06;;;;;;;1.10;1.00;;;27.10;99.90;;;;;;5092281;28;20536;-63
2022/08/23 12:18:57;;;;;;;0.90;0.90;;;27.00;99.90;;;;;;5092130;28;20498;-62
2022/08/23 12:21:28;;;;;;;1.08;0.88;;;26.90;99.90;;;;;;5088980;28;20040;-62
2022/08/23 12:24:12;;;;;;;1.10;1.00;;;26.80;99.90;;;;;;5091808;28;20052;-62
2022/08/23 12:26:43;;;;;;;1.00;1.00;;;27.00;99.90;;;;;;5091876;28;20032;-63
2022/08/23 12:29:47;;;;;;;1.52;0.93;;;27.40;99.90;;;;;;5092209;28;20052;-63
2022/08/23 12:32:28;;;;;;;0.88;0.88;;;27.50;99.90;;;;;;5091831;28;20442;-63
2022/08/23 12:35:08;;;;;;;1.00;1.00;;;27.80;99.90;;;;;;5091618;28;20028;-63
2022/08/23 12:37:55;;;;;;;2.75;1.13;;;27.80;99.90;;;;;;5091677;28;20107;-63
2022/08/23 12:40:45;;;;;;;0.95;0.82;;;28.20;99.90;;;;;;5091537;28;20190;-62
2022/08/23 12:43:27;;;;;;;0.90;0.90;;;28.10;99.90;;;;;;5091694;28;20036;-63
2022/08/23 12:45:54;;;;;;;0.95;0.95;;;27.50;99.90;;;;;;5091643;28;20032;-63
2022/08/23 12:48:23;;;;;;;0.93;0.93;;;27.30;99.90;;;;;;5091424;28;20024;-63
2022/08/23 12:51:02;;;;;;;0.80;0.80;;;27.80;99.90;;;;;;5091213;28;20043;-63
2022/08/23 12:53:42;;;;;;;1.13;1.02;;;28.30;99.90;;;;;;5091719;28;20020;-63
2022/08/23 12:56:24;;;;;;;2.08;1.10;;;27.80;99.90;;;;;;5091632;28;20069;-63
2022/08/23 12:58:58;;;;;;;1.13;1.05;;;27.70;99.90;;;;;;5091957;28;20028;-63
2022/08/23 13:01:35;;;;;;;1.00;0.90;;;27.90;99.90;;;;;;5095039;28;20495;-63
2022/08/23 13:04:12;;;;;;;1.02;0.85;;;28.40;99.90;;;;;;5094903;28;20421;-63
2022/08/23 13:06:47;;;;;;;1.15;1.10;;;28.60;99.90;;;;;;5095302;28;20057;-63
2022/08/23 13:09:18;;;;;;;1.08;0.90;;;28.70;99.90;;;;;;5095165;28;20106;-63
2022/08/23 13:11:46;;;;;;;1.15;1.00;;;29.00;99.90;;;;;;5094845;28;20032;-63
2022/08/23 13:14:51;;;;;;;0.90;0.90;;;29.00;99.90;;;;;;5095387;28;20407;-63
2022/08/23 13:17:26;;;;;;;0.90;0.90;;;29.00;99.90;;;;;;5092073;28;20111;-63
2022/08/23 13:20:19;;;;;;;2.88;1.00;;;28.90;99.90;;;;;;5095030;28;20103;-63
2022/08/23 13:23:04;;;;;;;1.58;0.90;;;28.50;99.90;;;;;;5094944;28;20115;-62